createdAt,value
2023-11-16T00:00:00.979Z,13.30
2023-11-16T00:02:28.497Z,10.52
2023-11-16T00:04:55.811Z,9.45
2023-11-16T00:07:25.415Z,9.02
2023-11-16T00:09:52.255Z,10.55
2023-11-16T00:12:19.676Z,8.98
2023-11-16T00:14:46.467Z,11.55
2023-11-16T00:17:13.199Z,8.77
2023-11-16T00:19:43.019Z,10.60
2023-11-16T00:22:10.861Z,9.30
2023-11-16T00:24:37.591Z,8.77
2023-11-16T00:27:04.681Z,9.60
2023-11-16T00:29:31.332Z,8.38
2023-11-16T00:31:59.913Z,10.27
2023-11-16T00:34:26.901Z,10.40
2023-11-16T00:36:53.558Z,8.30
2023-11-16T00:39:20.868Z,7.93
2023-11-16T00:41:48.075Z,10.98
2023-11-16T00:44:20.543Z,9.77
2023-11-16T00:46:50.124Z,9.88
2023-11-16T00:49:17.353Z,7.30
2023-11-16T00:51:44.189Z,15.30
2023-11-16T00:54:13.777Z,9.35
2023-11-16T00:56:40.866Z,7.63
2023-11-16T00:59:07.586Z,7.93
2023-11-16T01:01:35.118Z,10.60
2023-11-16T01:04:02.399Z,8.93
2023-11-16T01:06:29.328Z,7.68
2023-11-16T01:08:57.392Z,9.50
2023-11-16T01:11:28.924Z,7.40
2023-11-16T01:13:56.516Z,7.97
2023-11-16T01:16:26.758Z,9.75
2023-11-16T01:18:53.651Z,11.07
2023-11-16T01:21:21.247Z,7.85
2023-11-16T01:23:49.601Z,10.32
2023-11-16T01:26:19.217Z,10.00
2023-11-16T01:28:52.592Z,8.23
2023-11-16T01:31:22.425Z,7.68
2023-11-16T01:33:49.199Z,6.53
2023-11-16T01:36:16.238Z,6.78
2023-11-16T01:38:42.982Z,6.20
2023-11-16T01:41:10.888Z,7.00
2023-11-16T01:43:38.095Z,7.70
2023-11-16T01:46:09.990Z,7.05
2023-11-16T01:48:43.448Z,8.20
2023-11-16T01:51:12.806Z,9.00
2023-11-16T01:54:01.531Z,6.93
2023-11-16T01:56:37.387Z,6.07
2023-11-16T02:01:32.272Z,6.57
2023-11-16T02:03:59.072Z,5.20
2023-11-16T02:06:27.195Z,5.40
2023-11-16T02:08:54.149Z,5.88
2023-11-16T02:11:22.993Z,6.28
2023-11-16T02:13:54.136Z,6.72
2023-11-16T02:16:20.819Z,4.60
2023-11-16T02:18:48.285Z,5.80
2023-11-16T02:21:15.109Z,6.00
2023-11-16T02:23:43.328Z,6.75
2023-11-16T02:26:11.704Z,5.45
2023-11-16T02:28:39.510Z,4.65
2023-11-16T02:31:07.982Z,5.45
2023-11-16T02:33:35.521Z,6.57
2023-11-16T02:36:02.341Z,6.55
2023-11-16T02:38:29.042Z,13.35
2023-11-16T02:40:55.723Z,5.97
2023-11-16T02:43:23.044Z,6.47
2023-11-16T02:45:49.832Z,6.22
2023-11-16T02:48:16.785Z,7.10
2023-11-16T02:50:44.334Z,6.10
2023-11-16T02:53:11.573Z,8.48
2023-11-16T02:55:38.279Z,6.43
2023-11-16T02:58:05.153Z,6.93
2023-11-16T03:00:33.752Z,6.68
2023-11-16T03:03:03.832Z,8.10
2023-11-16T03:05:30.918Z,6.38
2023-11-16T03:07:57.550Z,7.50
2023-11-16T03:10:25.219Z,8.25
2023-11-16T03:12:53.263Z,6.88
2023-11-16T03:15:20.372Z,8.23
2023-11-16T03:17:47.186Z,10.27
2023-11-16T03:20:17.980Z,7.57
2023-11-16T03:22:45.621Z,7.90
2023-11-16T03:25:12.593Z,6.43
2023-11-16T03:27:39.474Z,10.82
2023-11-16T03:30:06.877Z,5.57
2023-11-16T03:32:33.609Z,7.95
2023-11-16T03:35:00.671Z,5.85
2023-11-16T03:37:27.771Z,8.18
2023-11-16T03:39:54.537Z,6.03
2023-11-16T03:42:21.763Z,6.78
2023-11-16T03:44:50.455Z,5.95
2023-11-16T03:47:17.227Z,6.28
2023-11-16T03:49:44.145Z,6.47
2023-11-16T03:52:11.282Z,6.03
2023-11-16T03:54:38.031Z,5.97
2023-11-16T03:57:05.451Z,6.32
2023-11-16T03:59:32.128Z,5.07
2023-11-16T04:01:58.793Z,5.28
2023-11-16T04:04:25.639Z,4.65
2023-11-16T04:06:52.352Z,3.60
2023-11-16T04:09:19.086Z,3.95
2023-11-16T04:11:46.196Z,3.85
2023-11-16T04:14:13.305Z,4.57
2023-11-16T04:16:40.293Z,4.07
2023-11-16T04:19:07.256Z,3.13
2023-11-16T04:21:37.944Z,3.67
2023-11-16T04:24:12.307Z,3.65
2023-11-16T04:26:39.674Z,2.80
2023-11-16T04:29:07.788Z,4.18
2023-11-16T04:31:35.543Z,1.52
2023-11-16T04:34:02.947Z,1.70
2023-11-16T04:36:33.101Z,2.10
2023-11-16T04:39:01.571Z,2.25
2023-11-16T04:41:30.140Z,1.70
2023-11-16T04:43:58.052Z,1.25
2023-11-16T04:46:28.242Z,1.60
2023-11-16T04:48:56.578Z,1.13
2023-11-16T04:51:25.653Z,1.80
2023-11-16T04:53:52.596Z,1.75
2023-11-16T04:56:19.335Z,1.25
2023-11-16T04:58:46.389Z,1.63
2023-11-16T05:01:18.022Z,2.42
2023-11-16T05:03:47.878Z,2.28
2023-11-16T05:06:16.056Z,1.85
2023-11-16T05:08:43.609Z,1.58
2023-11-16T05:11:10.297Z,1.88
2023-11-16T05:13:37.051Z,1.35
2023-11-16T05:16:09.823Z,1.77
2023-11-16T05:18:36.676Z,1.98
2023-11-16T05:21:05.378Z,1.77
2023-11-16T05:23:32.173Z,5.82
2023-11-16T05:25:58.915Z,2.42
2023-11-16T05:28:27.207Z,1.77
2023-11-16T05:30:54.403Z,1.23
2023-11-16T05:33:23.870Z,1.35
2023-11-16T05:35:54.193Z,1.40
2023-11-16T05:38:22.658Z,1.48
2023-11-16T05:40:49.322Z,1.20
2023-11-16T05:43:16.249Z,1.67
2023-11-16T05:45:43.040Z,1.73
2023-11-16T05:48:09.900Z,1.65
2023-11-16T05:50:38.361Z,1.55
2023-11-16T05:53:05.469Z,1.38
2023-11-16T05:55:34.410Z,1.27
2023-11-16T05:58:01.240Z,1.50
2023-11-16T06:00:28.041Z,1.38
2023-11-16T06:02:54.862Z,1.42
2023-11-16T06:05:21.607Z,1.60
2023-11-16T06:07:48.341Z,0.70
2023-11-16T06:10:18.478Z,1.38
2023-11-16T06:12:48.170Z,0.85
2023-11-16T06:15:16.298Z,1.20
2023-11-16T06:17:43.416Z,1.52
2023-11-16T06:20:13.423Z,1.52
2023-11-16T06:22:41.871Z,1.63
2023-11-16T06:25:12.396Z,1.23
2023-11-16T06:27:40.235Z,1.30
2023-11-16T06:30:07.980Z,4.93
2023-11-16T06:32:37.196Z,1.00
2023-11-16T06:35:04.781Z,1.30
2023-11-16T06:37:33.141Z,1.25
2023-11-16T06:40:00.022Z,0.85
2023-11-16T06:42:26.734Z,0.73
2023-11-16T06:44:53.621Z,1.42
2023-11-16T06:47:21.308Z,0.80
2023-11-16T06:49:50.139Z,0.95
2023-11-16T06:52:18.409Z,1.40
2023-11-16T06:54:45.397Z,1.20
2023-11-16T06:57:12.545Z,0.98
2023-11-16T06:59:42.446Z,1.00
2023-11-16T07:02:09.737Z,1.17
2023-11-16T07:04:39.355Z,1.63
2023-11-16T07:07:06.135Z,1.35
2023-11-16T07:09:32.894Z,1.02
2023-11-16T07:12:00.501Z,1.08
2023-11-16T07:14:39.661Z,1.35
2023-11-16T07:17:12.262Z,0.95
2023-11-16T07:19:39.769Z,1.30
2023-11-16T07:22:07.236Z,0.95
2023-11-16T07:24:34.396Z,1.92
2023-11-16T07:27:03.950Z,1.23
2023-11-16T07:29:33.171Z,1.20
2023-11-16T07:32:02.116Z,1.20
2023-11-16T07:34:28.797Z,1.05
2023-11-16T07:36:55.529Z,1.50
2023-11-16T07:39:22.331Z,1.35
2023-11-16T07:41:52.203Z,1.77
2023-11-16T07:44:19.203Z,1.00
2023-11-16T07:46:47.175Z,1.10
2023-11-16T07:49:14.891Z,0.93
2023-11-16T07:51:42.409Z,0.95
2023-11-16T07:54:09.306Z,1.10
2023-11-16T07:56:36.065Z,1.00
2023-11-16T07:59:04.147Z,1.30
2023-11-16T08:01:40.938Z,1.23
2023-11-16T08:04:11.106Z,0.80
2023-11-16T08:06:38.678Z,1.13
2023-11-16T08:09:06.511Z,0.95
2023-11-16T08:11:37.335Z,1.10
2023-11-16T08:14:10.671Z,1.20
2023-11-16T08:16:37.323Z,1.20
2023-11-16T08:19:04.090Z,0.70
2023-11-16T08:21:30.997Z,1.42
2023-11-16T08:23:58.631Z,0.80
2023-11-16T08:26:26.852Z,1.00
2023-11-16T08:28:54.446Z,1.20
2023-11-16T08:31:21.394Z,1.40
2023-11-16T08:33:48.462Z,1.10
2023-11-16T08:36:17.444Z,2.20
2023-11-16T08:38:47.163Z,2.22
2023-11-16T08:41:18.096Z,1.48
2023-11-16T08:43:46.172Z,1.42
2023-11-16T08:46:22.826Z,1.92
2023-11-16T08:48:50.619Z,1.65
2023-11-16T08:51:17.757Z,1.35
2023-11-16T08:53:45.578Z,0.90
2023-11-16T08:56:16.698Z,1.83
2023-11-16T08:58:53.468Z,1.35
2023-11-16T09:01:20.676Z,1.50
2023-11-16T09:03:50.709Z,1.95
2023-11-16T09:06:19.632Z,1.42
2023-11-16T09:08:50.486Z,1.38
2023-11-16T09:11:19.096Z,1.77
2023-11-16T09:13:46.185Z,1.77
2023-11-16T09:16:13.308Z,1.33
2023-11-16T09:18:43.147Z,1.25
2023-11-16T09:21:10.964Z,2.63
2023-11-16T09:23:38.057Z,1.70
2023-11-16T09:26:05.384Z,2.13
2023-11-16T09:28:37.989Z,1.88
2023-11-16T09:31:13.244Z,2.67
2023-11-16T09:33:40.819Z,1.50
2023-11-16T09:36:11.358Z,2.05
2023-11-16T09:38:38.028Z,1.23
2023-11-16T09:41:16.469Z,1.40
2023-11-16T09:43:52.075Z,1.20
2023-11-16T09:46:24.103Z,1.40
2023-11-16T09:48:54.679Z,1.33
2023-11-16T09:51:24.547Z,1.67
2023-11-16T09:53:51.981Z,1.90
2023-11-16T09:56:36.123Z,1.40
2023-11-16T09:59:14.969Z,1.27
2023-11-16T10:01:54.414Z,0.90
2023-11-16T10:04:21.651Z,1.15
2023-11-16T10:06:51.179Z,1.02
2023-11-16T10:09:18.774Z,1.38
2023-11-16T10:11:45.581Z,1.40
2023-11-16T10:14:12.399Z,1.35
2023-11-16T10:16:39.639Z,1.27
2023-11-16T10:19:12.156Z,1.52
2023-11-16T10:21:41.019Z,1.27
2023-11-16T10:24:10.208Z,1.33
2023-11-16T10:26:37.141Z,2.00
2023-11-16T10:29:03.931Z,1.00
2023-11-16T10:31:33.056Z,1.30
2023-11-16T10:34:00.567Z,1.27
2023-11-16T10:36:27.625Z,1.25
2023-11-16T10:38:59.175Z,2.60
2023-11-16T10:41:25.984Z,1.90
2023-11-16T10:43:57.777Z,1.10
2023-11-16T10:46:31.198Z,1.50
2023-11-16T10:48:58.711Z,1.67
2023-11-16T10:51:26.865Z,2.83
2023-11-16T10:53:55.215Z,1.65
2023-11-16T10:56:22.805Z,1.33
2023-11-16T10:58:51.914Z,1.27
2023-11-16T11:01:20.200Z,1.33
2023-11-16T11:03:49.639Z,1.42
2023-11-16T11:06:23.080Z,1.10
2023-11-16T11:08:55.511Z,1.55
2023-11-16T11:11:26.293Z,1.33
2023-11-16T11:13:59.161Z,1.63
2023-11-16T11:16:30.886Z,1.58
2023-11-16T11:18:59.492Z,1.73
2023-11-16T11:21:30.214Z,1.60
2023-11-16T11:24:08.043Z,1.08
2023-11-16T11:26:49.738Z,1.60
2023-11-16T11:29:17.453Z,2.15
2023-11-16T11:31:52.146Z,2.00
2023-11-16T11:34:26.527Z,1.55
2023-11-16T11:36:53.261Z,1.95
2023-11-16T11:39:24.800Z,1.75
2023-11-16T11:42:01.072Z,2.75
2023-11-16T11:44:28.744Z,1.70
2023-11-16T11:46:59.362Z,1.73
2023-11-16T11:49:26.913Z,3.80
2023-11-16T11:51:54.771Z,2.45
2023-11-16T11:54:38.327Z,2.17
2023-11-16T11:57:06.802Z,4.25
2023-11-16T11:59:36.660Z,2.17
2023-11-16T12:02:12.019Z,1.67
2023-11-16T12:04:40.772Z,24.48
2023-11-16T12:07:09.941Z,2.97
2023-11-16T12:09:44.019Z,3.75
2023-11-16T12:12:12.644Z,2.10
2023-11-16T12:14:49.094Z,2.50
2023-11-16T12:17:17.772Z,3.42
2023-11-16T12:19:49.939Z,3.25
2023-11-16T12:22:17.589Z,3.25
2023-11-16T12:24:48.004Z,2.50
2023-11-16T12:27:18.192Z,3.50
2023-11-16T12:30:00.247Z,2.28
2023-11-16T12:32:27.632Z,2.35
2023-11-16T12:34:55.378Z,2.90
2023-11-16T12:37:23.265Z,3.03
2023-11-16T12:39:51.644Z,2.10
2023-11-16T12:42:19.266Z,2.30
2023-11-16T12:44:46.370Z,2.90
2023-11-16T12:47:21.884Z,2.22
2023-11-16T12:49:50.049Z,2.45
2023-11-16T12:52:16.706Z,2.20
2023-11-16T12:54:43.440Z,2.15
2023-11-16T12:57:11.268Z,2.13
2023-11-16T12:59:38.111Z,3.30
2023-11-16T13:02:06.433Z,3.58
2023-11-16T13:04:33.597Z,2.42
2023-11-16T13:07:00.552Z,3.72
2023-11-16T13:09:27.309Z,2.63
2023-11-16T13:11:55.716Z,2.63
2023-11-16T13:14:25.215Z,2.75
2023-11-16T13:16:51.941Z,2.80
2023-11-16T13:19:18.954Z,3.10
2023-11-16T13:21:45.598Z,2.67
2023-11-16T13:24:12.281Z,2.63
2023-11-16T13:26:39.128Z,2.78
2023-11-16T13:29:07.207Z,3.20
2023-11-16T13:31:34.687Z,3.97
2023-11-16T13:34:01.505Z,3.85
2023-11-16T13:36:28.477Z,2.97
2023-11-16T13:38:58.263Z,2.47
2023-11-16T13:41:24.925Z,5.25
2023-11-16T13:43:51.660Z,3.83
2023-11-16T13:46:18.407Z,4.75
2023-11-16T13:48:46.741Z,4.25
2023-11-16T13:51:13.596Z,2.63
2023-11-16T13:53:40.214Z,3.20
2023-11-16T13:56:07.354Z,5.80
2023-11-16T13:58:36.783Z,2.90
2023-11-16T14:01:04.213Z,2.75
2023-11-16T14:03:31.207Z,2.90
2023-11-16T14:05:57.934Z,2.17
2023-11-16T14:08:24.585Z,3.08
2023-11-16T14:10:51.544Z,3.20
2023-11-16T14:13:18.303Z,2.95
2023-11-16T14:15:54.729Z,3.00
2023-11-16T14:18:26.998Z,2.22
2023-11-16T14:20:55.279Z,2.63
2023-11-16T14:23:24.580Z,2.70
2023-11-16T14:25:51.756Z,2.80
2023-11-16T14:28:18.406Z,2.58
2023-11-16T14:30:45.334Z,4.32
2023-11-16T14:33:13.916Z,3.45
2023-11-16T14:35:40.717Z,3.42
2023-11-16T14:38:07.348Z,3.22
2023-11-16T14:40:34.289Z,3.40
2023-11-16T14:43:00.959Z,2.67
2023-11-16T14:45:28.956Z,2.75
2023-11-16T14:47:55.939Z,3.35
2023-11-16T14:50:22.747Z,3.92
2023-11-16T14:52:58.084Z,3.55
2023-11-16T14:55:32.277Z,3.15
2023-11-16T14:57:59.022Z,3.05
2023-11-16T15:00:27.815Z,2.72
2023-11-16T15:02:55.586Z,4.07
2023-11-16T15:05:31.117Z,3.85
2023-11-16T15:08:02.004Z,3.40
2023-11-16T15:10:29.781Z,4.38
2023-11-16T15:12:56.464Z,3.83
2023-11-16T15:15:23.153Z,3.88
2023-11-16T15:17:49.901Z,5.07
2023-11-16T15:20:24.802Z,4.35
2023-11-16T15:22:54.494Z,5.03
2023-11-16T15:25:21.408Z,4.10
2023-11-16T15:27:48.581Z,3.95
2023-11-16T15:30:15.575Z,5.90
2023-11-16T15:32:42.407Z,7.57
2023-11-16T15:35:09.599Z,7.65
2023-11-16T15:37:37.258Z,4.85
2023-11-16T15:40:05.988Z,5.10
2023-11-16T15:42:33.180Z,4.22
2023-11-16T15:45:01.128Z,5.80
2023-11-16T15:47:28.041Z,11.48
2023-11-16T15:49:54.713Z,5.22
2023-11-16T15:52:24.027Z,9.45
2023-11-16T15:54:51.927Z,5.55
2023-11-16T15:57:27.620Z,4.07
2023-11-16T15:59:58.492Z,7.80
2023-11-16T16:02:29.916Z,5.15
2023-11-16T16:05:06.159Z,5.80
2023-11-16T16:07:36.098Z,3.83
2023-11-16T16:10:09.040Z,2.47
2023-11-16T16:12:37.705Z,3.95
2023-11-16T16:15:06.448Z,4.85
2023-11-16T16:17:34.231Z,4.30
2023-11-16T16:20:00.928Z,5.35
2023-11-16T16:22:27.586Z,5.57
2023-11-16T16:24:54.894Z,4.03
2023-11-16T16:27:21.540Z,4.47
2023-11-16T16:29:48.178Z,3.97
2023-11-16T16:32:14.836Z,5.38
2023-11-16T16:34:41.466Z,4.63
2023-11-16T16:37:08.270Z,6.97
2023-11-16T16:39:38.657Z,6.20
2023-11-16T16:42:05.636Z,8.30
2023-11-16T16:44:32.573Z,4.32
2023-11-16T16:46:59.601Z,4.43
2023-11-16T16:49:29.118Z,5.20
2023-11-16T16:51:59.197Z,6.60
2023-11-16T16:54:25.907Z,5.65
2023-11-16T16:56:53.407Z,5.78
2023-11-16T16:59:20.050Z,3.10
2023-11-16T17:01:46.749Z,6.55
2023-11-16T17:04:13.452Z,8.18
2023-11-16T17:06:40.273Z,3.50
2023-11-16T17:09:08.387Z,13.50
2023-11-16T17:11:35.362Z,5.53
2023-11-16T17:14:02.030Z,5.47
2023-11-16T17:16:28.850Z,9.82
2023-11-16T17:18:55.689Z,11.10
2023-11-16T17:21:23.024Z,5.30
2023-11-16T17:23:52.498Z,4.18
2023-11-16T17:26:20.868Z,6.68
2023-11-16T17:28:48.725Z,10.20
2023-11-16T17:31:15.611Z,5.35
2023-11-16T17:33:42.412Z,3.28
2023-11-16T17:36:09.457Z,5.47
2023-11-16T17:38:36.939Z,4.38
2023-11-16T17:41:06.222Z,4.43
2023-11-16T17:43:39.285Z,8.73
2023-11-16T17:46:07.777Z,3.88
2023-11-16T17:48:34.957Z,7.47
2023-11-16T17:51:03.113Z,4.97
2023-11-16T17:53:29.792Z,3.53
2023-11-16T17:55:56.748Z,12.20
2023-11-16T17:58:23.554Z,14.18
2023-11-16T18:00:51.050Z,11.30
2023-11-16T18:03:17.994Z,16.65
2023-11-16T18:05:45.128Z,16.15
2023-11-16T18:08:12.083Z,7.05
2023-11-16T18:10:41.032Z,4.15
2023-11-16T18:13:07.727Z,7.53
2023-11-16T18:15:35.114Z,7.20
2023-11-16T18:18:04.750Z,3.15
2023-11-16T18:20:32.461Z,6.78
2023-11-16T18:23:00.822Z,11.48
2023-11-16T18:25:27.794Z,6.70
2023-11-16T18:27:56.483Z,6.25
2023-11-16T18:30:24.705Z,6.60
2023-11-16T18:32:53.732Z,5.85
2023-11-16T18:35:24.227Z,7.70
2023-11-16T18:37:51.447Z,13.75
2023-11-16T18:40:20.031Z,11.45
2023-11-16T18:42:49.789Z,11.23
2023-11-16T18:45:16.954Z,11.65
2023-11-16T18:47:43.606Z,8.88
2023-11-16T18:50:10.758Z,6.65
2023-11-16T18:52:37.452Z,4.70
2023-11-16T18:55:04.588Z,11.32
2023-11-16T18:57:34.075Z,4.60
2023-11-16T19:00:01.900Z,4.82
2023-11-16T19:02:28.852Z,3.55
2023-11-16T19:05:01.119Z,4.72
2023-11-16T19:07:27.835Z,11.20
2023-11-16T19:09:55.442Z,7.70
2023-11-16T19:12:24.668Z,7.30
2023-11-16T19:14:51.620Z,5.93
2023-11-16T19:17:19.540Z,4.07
2023-11-16T19:19:46.358Z,4.75
2023-11-16T19:22:13.093Z,5.80
2023-11-16T19:24:39.965Z,5.82
2023-11-16T19:27:06.652Z,4.82
2023-11-16T19:29:33.282Z,6.60
2023-11-16T19:32:00.002Z,5.65
2023-11-16T19:34:26.884Z,5.20
2023-11-16T19:36:53.618Z,5.30
2023-11-16T19:39:22.185Z,6.07
2023-11-16T19:41:54.618Z,4.95
2023-11-16T19:44:21.338Z,3.70
2023-11-16T19:46:50.561Z,5.32
2023-11-16T19:49:18.257Z,5.75
2023-11-16T19:51:44.948Z,5.63
2023-11-16T19:54:13.920Z,5.35
2023-11-16T19:56:40.714Z,6.20
2023-11-16T19:59:08.434Z,5.38
2023-11-16T20:01:35.218Z,5.45
2023-11-16T20:04:02.743Z,6.93
2023-11-16T20:06:29.504Z,7.13
2023-11-16T20:08:56.145Z,19.33
2023-11-16T20:11:22.898Z,12.18
2023-11-16T20:13:51.878Z,23.02
2023-11-16T20:16:20.122Z,6.13
2023-11-16T20:18:47.048Z,5.00
2023-11-16T20:21:13.905Z,2.78
2023-11-16T20:23:42.273Z,4.53
2023-11-16T20:26:12.610Z,5.93
2023-11-16T20:28:39.405Z,3.53
2023-11-16T20:31:06.072Z,4.40
2023-11-16T20:33:32.884Z,11.98
2023-11-16T20:35:59.596Z,4.68
2023-11-16T20:38:26.962Z,12.35
2023-11-16T20:40:53.996Z,7.88
2023-11-16T20:43:22.847Z,7.40
2023-11-16T20:45:49.770Z,5.80
2023-11-16T20:48:16.983Z,6.50
2023-11-16T20:50:44.058Z,7.65
2023-11-16T20:53:13.417Z,4.65
2023-11-16T20:55:40.536Z,3.67
2023-11-16T20:58:07.339Z,6.53
2023-11-16T21:00:34.289Z,7.97
2023-11-16T21:03:01.161Z,4.82
2023-11-16T21:05:29.665Z,8.35
2023-11-16T21:07:56.479Z,3.47
2023-11-16T21:10:24.306Z,4.57
2023-11-16T21:12:51.186Z,4.40
2023-11-16T21:15:20.295Z,6.38
2023-11-16T21:17:47.189Z,7.55
2023-11-16T21:20:14.367Z,6.45
2023-11-16T21:22:42.302Z,4.60
2023-11-16T21:25:11.044Z,8.27
2023-11-16T21:27:38.318Z,8.18
2023-11-16T21:30:12.008Z,8.50
2023-11-16T21:32:39.587Z,6.32
2023-11-16T21:35:17.420Z,5.32
2023-11-16T21:37:47.757Z,7.32
2023-11-16T21:40:15.216Z,5.25
2023-11-16T21:42:42.423Z,5.47
2023-11-16T21:45:11.210Z,6.03
2023-11-16T21:47:39.993Z,3.75
2023-11-16T21:50:07.448Z,4.45
2023-11-16T21:52:34.133Z,3.72
2023-11-16T21:55:00.836Z,3.78
2023-11-16T21:57:27.559Z,5.00
2023-11-16T21:59:56.024Z,2.88
2023-11-16T22:02:22.758Z,3.95
2023-11-16T22:04:49.431Z,5.03
2023-11-16T22:07:16.153Z,5.70
2023-11-16T22:09:42.879Z,7.05
2023-11-16T22:12:09.827Z,7.57
2023-11-16T22:14:36.436Z,5.72
2023-11-16T22:17:05.348Z,3.97
2023-11-16T22:19:33.441Z,3.38
2023-11-16T22:22:00.324Z,3.00
2023-11-16T22:24:27.015Z,4.38
2023-11-16T22:26:53.668Z,3.47
2023-11-16T22:29:20.351Z,3.88
2023-11-16T22:31:48.343Z,4.00
2023-11-16T22:34:15.187Z,4.05
2023-11-16T22:36:41.887Z,4.07
2023-11-16T22:39:10.539Z,6.15
2023-11-16T22:41:37.266Z,3.30
2023-11-16T22:44:03.951Z,3.95
2023-11-16T22:46:31.804Z,3.85
2023-11-16T22:48:59.795Z,4.85
2023-11-16T22:51:27.084Z,4.55
2023-11-16T22:53:53.807Z,5.03
2023-11-16T22:56:20.515Z,5.25
2023-11-16T22:58:47.142Z,5.63
2023-11-16T23:01:14.821Z,5.93
2023-11-16T23:03:42.142Z,7.30
2023-11-16T23:06:09.203Z,5.32
2023-11-16T23:08:35.936Z,5.65
2023-11-16T23:11:02.653Z,4.57
2023-11-16T23:13:29.382Z,5.95
2023-11-16T23:15:56.110Z,5.20
2023-11-16T23:18:22.966Z,6.20
2023-11-16T23:20:50.125Z,7.65
2023-11-16T23:23:17.159Z,5.10
2023-11-16T23:25:45.580Z,3.90
2023-11-16T23:28:12.772Z,5.28
2023-11-16T23:30:40.946Z,6.30
2023-11-16T23:33:09.572Z,4.90
2023-11-16T23:35:36.957Z,4.97
2023-11-16T23:38:03.644Z,4.95
2023-11-16T23:40:30.337Z,4.65
2023-11-16T23:42:56.996Z,5.05
2023-11-16T23:45:25.281Z,5.18
2023-11-16T23:47:52.251Z,4.15
2023-11-16T23:50:18.924Z,4.85
2023-11-16T23:52:45.586Z,4.63
2023-11-16T23:55:12.319Z,3.92
2023-11-16T23:57:40.793Z,6.97
